Time;durP1;ratioP1;P1;durP2;ratioP2;P2;SDS_P1;SDS_P2;PMS_P1;PMS_P2;Temp;Humidity;BMP_temperature;BMP_pressure;BME280_temperature;BME280_humidity;BME280_pressure;Samples;Min_cycle;Max_cycle;Signal;HPM_P1;HPM_P2
2024/03/13 00:00:09;;;;;;;11.53;10.90;;;7.00;99.90;;;;;;5050426;28;20223;-80
2024/03/13 00:02:39;;;;;;;11.30;10.70;;;7.00;99.90;;;;;;5056480;28;20207;-81
2024/03/13 00:05:08;;;;;;;11.20;10.50;;;7.00;99.90;;;;;;5048180;28;20532;-81
2024/03/13 00:07:35;;;;;;;11.20;10.60;;;7.00;99.90;;;;;;5051006;28;20195;-81
2024/03/13 00:10:02;;;;;;;11.20;10.60;;;7.00;99.90;;;;;;5045378;28;20220;-81
2024/03/13 00:12:30;;;;;;;11.30;10.70;;;7.00;99.90;;;;;;5051891;28;20203;-81
2024/03/13 00:14:57;;;;;;;11.30;10.70;;;7.00;99.90;;;;;;5047497;28;20203;-80
2024/03/13 00:17:25;;;;;;;11.20;10.60;;;7.00;99.90;;;;;;5061984;28;20848;-81
2024/03/13 00:19:54;;;;;;;11.27;10.67;;;7.00;99.90;;;;;;5048200;28;20215;-81
2024/03/13 00:22:22;;;;;;;11.40;10.70;;;6.90;99.90;;;;;;5042856;28;20195;-80
2024/03/13 00:24:49;;;;;;;11.47;10.77;;;6.90;99.90;;;;;;5050450;28;20260;-81
2024/03/13 00:27:16;;;;;;;11.20;10.60;;;7.00;99.90;;;;;;5050378;28;20199;-80
2024/03/13 00:29:44;;;;;;;11.27;10.67;;;6.90;99.90;;;;;;5048044;28;20206;-80
2024/03/13 00:32:12;;;;;;;11.33;10.70;;;7.00;99.90;;;;;;5045266;28;20196;-81
2024/03/13 00:34:43;;;;;;;12.10;11.40;;;7.00;99.90;;;;;;5048902;28;20210;-81
2024/03/13 00:37:09;;;;;;;11.87;11.20;;;6.90;99.90;;;;;;5045844;28;20236;-81
2024/03/13 00:39:35;;;;;;;11.43;10.83;;;6.90;99.90;;;;;;5046781;28;20219;-81
2024/03/13 00:42:03;;;;;;;11.20;10.53;;;6.90;99.90;;;;;;5045435;28;20199;-80
2024/03/13 00:44:30;;;;;;;11.80;11.10;;;6.90;99.90;;;;;;5048930;28;20195;-80
2024/03/13 00:46:57;;;;;;;11.57;10.90;;;6.90;99.90;;;;;;5046171;28;20199;-80
2024/03/13 00:49:24;;;;;;;11.27;10.67;;;6.90;99.90;;;;;;5041730;28;20226;-81
2024/03/13 00:51:52;;;;;;;11.20;10.60;;;6.90;99.90;;;;;;5048295;28;20601;-80
2024/03/13 00:54:21;;;;;;;11.53;10.93;;;6.80;99.90;;;;;;5045606;28;20663;-81
2024/03/13 00:56:48;;;;;;;12.30;11.50;;;6.80;99.90;;;;;;5041976;28;20249;-80
2024/03/13 00:59:16;;;;;;;12.13;11.37;;;6.80;99.90;;;;;;5048272;28;20211;-81
2024/03/13 01:01:44;;;;;;;11.90;11.20;;;6.70;99.90;;;;;;5047150;28;20224;-81
2024/03/13 01:04:11;;;;;;;12.13;11.43;;;6.70;99.90;;;;;;5047394;28;20199;-80
2024/03/13 01:06:39;;;;;;;11.90;11.20;;;6.70;99.90;;;;;;5049176;28;20286;-81
2024/03/13 01:09:09;;;;;;;11.70;11.10;;;6.70;99.90;;;;;;5046627;28;20191;-80
2024/03/13 01:11:36;;;;;;;12.23;11.53;;;6.70;99.90;;;;;;5050978;28;20219;-80
2024/03/13 01:14:04;;;;;;;11.80;11.10;;;6.60;99.90;;;;;;5049882;28;20195;-81
2024/03/13 01:16:31;;;;;;;12.00;11.20;;;6.50;99.90;;;;;;5045336;28;20198;-80
2024/03/13 01:18:58;;;;;;;11.80;11.10;;;6.50;99.90;;;;;;5055066;28;20208;-81
2024/03/13 01:21:26;;;;;;;11.90;11.20;;;6.50;99.90;;;;;;5046577;28;20303;-81
2024/03/13 01:23:52;;;;;;;12.50;11.80;;;6.50;99.90;;;;;;5049394;28;20253;-81
2024/03/13 01:26:21;;;;;;;11.90;11.30;;;6.50;99.90;;;;;;5051918;28;20207;-81
2024/03/13 01:28:48;;;;;;;11.60;11.00;;;6.50;99.90;;;;;;5048979;28;20183;-82
2024/03/13 01:31:15;;;;;;;11.77;11.17;;;6.50;99.90;;;;;;5045613;28;20259;-81
2024/03/13 01:33:42;;;;;;;11.80;11.10;;;6.50;99.90;;;;;;5048421;28;20577;-80
2024/03/13 01:36:09;;;;;;;11.43;10.83;;;6.50;99.90;;;;;;5046150;28;20662;-80
2024/03/13 01:38:35;;;;;;;11.63;11.03;;;6.50;99.90;;;;;;5051983;28;20191;-81
2024/03/13 01:55:10;;;;;;;11.37;10.77;;;6.40;99.90;;;;;;5042711;28;20199;-80
2024/03/13 01:57:56;;;;;;;11.67;11.00;;;6.30;99.90;;;;;;5048116;28;20285;-80
2024/03/13 02:03:09;;;;;;;12.07;11.43;;;6.30;99.90;;;;;;5044928;28;20203;-80
2024/03/13 02:05:36;;;;;;;12.70;11.90;;;6.30;99.90;;;;;;5042535;28;20203;-81
2024/03/13 02:08:05;;;;;;;12.67;11.87;;;6.30;99.90;;;;;;5046115;28;20202;-80
2024/03/13 02:10:32;;;;;;;11.90;11.30;;;6.30;99.90;;;;;;5050272;28;20231;-80
2024/03/13 02:13:04;;;;;;;12.50;11.80;;;6.30;99.90;;;;;;5047289;28;20207;-81
2024/03/13 02:15:32;;;;;;;12.17;11.47;;;6.30;99.90;;;;;;5040729;28;20576;-80
2024/03/13 02:18:00;;;;;;;12.40;11.70;;;6.30;99.90;;;;;;5048773;28;20223;-80
2024/03/13 02:20:28;;;;;;;11.87;11.23;;;6.30;99.90;;;;;;5040249;28;20216;-80
2024/03/13 02:23:02;;;;;;;12.13;11.53;;;6.30;99.90;;;;;;5047906;28;20224;-81
2024/03/13 02:25:31;;;;;;;11.90;11.30;;;6.20;99.90;;;;;;5043608;28;20239;-81
2024/03/13 02:27:59;;;;;;;12.20;11.50;;;6.20;99.90;;;;;;5006621;28;20192;-81
2024/03/13 02:30:26;;;;;;;12.10;11.40;;;6.20;99.90;;;;;;5029418;28;20230;-81
2024/03/13 02:32:53;;;;;;;11.90;11.30;;;6.20;99.90;;;;;;5034271;28;20191;-80
2024/03/13 02:35:20;;;;;;;12.10;11.40;;;6.20;99.90;;;;;;5031139;28;20686;-80
2024/03/13 02:37:47;;;;;;;11.83;11.20;;;6.20;99.90;;;;;;5017901;28;20202;-82
2024/03/13 02:40:16;;;;;;;11.93;11.33;;;6.20;99.90;;;;;;5017189;28;20224;-82
2024/03/13 02:42:44;;;;;;;12.13;11.43;;;6.20;99.90;;;;;;5034742;28;20195;-81
2024/03/13 02:45:13;;;;;;;12.03;11.43;;;6.20;99.90;;;;;;5015397;28;20204;-82
2024/03/13 02:47:41;;;;;;;11.73;11.13;;;6.10;99.90;;;;;;5020379;28;20214;-82
2024/03/13 02:50:11;;;;;;;11.90;11.20;;;6.10;99.90;;;;;;5028416;28;20711;-82
2024/03/13 02:52:38;;;;;;;11.93;11.33;;;6.10;99.90;;;;;;5014644;28;20211;-83
2024/03/13 02:55:05;;;;;;;12.20;11.50;;;6.20;99.90;;;;;;5035626;28;20198;-82
2024/03/13 02:57:32;;;;;;;11.80;11.20;;;6.10;99.90;;;;;;5031043;28;20210;-81
2024/03/13 02:59:59;;;;;;;11.67;11.07;;;6.10;99.90;;;;;;5023134;28;20682;-82
2024/03/13 03:02:27;;;;;;;11.70;11.10;;;6.10;99.90;;;;;;5027323;28;20275;-82
2024/03/13 03:04:56;;;;;;;11.90;11.30;;;6.10;99.90;;;;;;5031171;28;20627;-83
2024/03/13 03:07:23;;;;;;;11.77;11.10;;;6.10;99.90;;;;;;5033455;28;20204;-83
2024/03/13 03:09:50;;;;;;;11.80;11.10;;;6.10;99.90;;;;;;5022834;28;20214;-83
2024/03/13 03:12:17;;;;;;;11.90;11.30;;;6.10;99.90;;;;;;5028245;28;20274;-82
2024/03/13 03:14:45;;;;;;;11.73;11.13;;;6.20;99.90;;;;;;5033407;28;20196;-81
2024/03/13 03:17:14;;;;;;;12.27;11.60;;;6.10;99.90;;;;;;5030833;28;20215;-82
2024/03/13 03:19:41;;;;;;;11.90;11.20;;;6.20;99.90;;;;;;5034928;28;20293;-82
2024/03/13 03:22:09;;;;;;;12.50;11.80;;;6.20;99.90;;;;;;5040809;28;20206;-82
2024/03/13 03:24:36;;;;;;;12.60;11.90;;;6.20;99.90;;;;;;5042271;28;20236;-81
2024/03/13 03:27:05;;;;;;;12.00;11.40;;;6.20;99.90;;;;;;5030681;28;20200;-82
2024/03/13 03:29:32;;;;;;;12.30;11.63;;;6.20;99.90;;;;;;5039314;28;20238;-82
2024/03/13 03:31:59;;;;;;;12.30;11.70;;;6.20;99.90;;;;;;5030996;28;20297;-82
2024/03/13 03:34:26;;;;;;;12.43;11.80;;;6.20;99.90;;;;;;5022820;28;20198;-81
2024/03/13 03:36:55;;;;;;;12.70;12.00;;;6.30;99.90;;;;;;5043480;28;20588;-78
2024/03/13 03:39:25;;;;;;;12.57;11.87;;;6.20;99.90;;;;;;5035469;28;20195;-81
2024/03/13 03:41:52;;;;;;;12.07;11.47;;;6.20;99.90;;;;;;5022424;28;20219;-79
2024/03/13 03:44:19;;;;;;;12.37;11.70;;;6.30;99.90;;;;;;5022835;28;20210;-81
2024/03/13 03:46:46;;;;;;;12.47;11.77;;;6.30;99.90;;;;;;5035072;28;20225;-79
2024/03/13 03:49:13;;;;;;;13.10;12.40;;;6.30;99.90;;;;;;5041193;28;20195;-79
2024/03/13 03:51:40;;;;;;;12.73;12.03;;;6.30;99.90;;;;;;5051072;23;20254;-79
2024/03/13 03:54:07;;;;;;;12.90;12.20;;;6.30;99.90;;;;;;5027312;28;20197;-79
2024/03/13 03:56:38;;;;;;;13.30;12.50;;;6.30;99.90;;;;;;5026522;28;20257;-80
2024/03/13 03:59:06;;;;;;;13.27;12.57;;;6.30;99.90;;;;;;5035023;28;20207;-79
2024/03/13 04:01:33;;;;;;;12.90;12.20;;;6.30;99.90;;;;;;4994741;28;20283;-80
2024/03/13 04:04:00;;;;;;;13.40;12.70;;;6.40;99.90;;;;;;5002800;28;20224;-79
2024/03/13 04:06:27;;;;;;;13.60;12.80;;;6.40;99.90;;;;;;4992189;28;20194;-79
2024/03/13 04:08:54;;;;;;;13.17;12.47;;;6.40;99.90;;;;;;5009986;28;20701;-80
2024/03/13 04:11:21;;;;;;;13.00;12.30;;;6.40;99.90;;;;;;4979321;28;20231;-80
2024/03/13 04:13:49;;;;;;;13.00;12.20;;;6.40;99.90;;;;;;4979403;28;20658;-82
2024/03/13 04:16:17;;;;;;;13.20;12.40;;;6.40;99.90;;;;;;5009013;28;20201;-80
2024/03/13 04:18:44;;;;;;;13.00;12.30;;;6.40;99.90;;;;;;4979415;28;20547;-78
2024/03/13 04:21:12;;;;;;;13.20;12.40;;;6.50;99.90;;;;;;5023057;28;20220;-79
2024/03/13 04:23:41;;;;;;;13.07;12.37;;;6.50;99.90;;;;;;4979991;28;20197;-79
2024/03/13 04:26:08;;;;;;;13.50;12.70;;;6.50;99.90;;;;;;5012234;28;20272;-79
2024/03/13 04:28:37;;;;;;;13.10;12.40;;;6.50;99.90;;;;;;5015792;28;20204;-79
2024/03/13 04:31:04;;;;;;;13.00;12.30;;;6.50;99.90;;;;;;5005873;28;20224;-79
2024/03/13 04:33:31;;;;;;;13.47;12.77;;;6.50;99.90;;;;;;5002072;28;20212;-79
2024/03/13 04:35:58;;;;;;;13.80;13.10;;;6.50;99.90;;;;;;5009228;28;20675;-79
2024/03/13 04:38:25;;;;;;;13.40;12.70;;;6.50;99.90;;;;;;5002414;28;20212;-79
2024/03/13 04:40:52;;;;;;;13.87;13.13;;;6.60;99.90;;;;;;5013578;28;20279;-80
2024/03/13 04:43:19;;;;;;;14.17;13.20;;;6.60;99.90;;;;;;5020854;28;20667;-79
2024/03/13 04:45:46;;;;;;;13.70;12.90;;;6.60;99.90;;;;;;4992824;28;20208;-77
2024/03/13 04:48:14;;;;;;;14.60;13.70;;;6.60;99.90;;;;;;5012988;28;20205;-77
2024/03/13 04:50:41;;;;;;;13.97;13.17;;;6.60;99.90;;;;;;5012734;28;20232;-77
2024/03/13 04:53:08;;;;;;;14.20;13.40;;;6.60;99.90;;;;;;4998863;28;20729;-77
2024/03/13 04:55:35;;;;;;;15.00;14.20;;;6.60;99.90;;;;;;5013128;28;20664;-77
2024/03/13 04:58:01;;;;;;;15.03;14.17;;;6.60;99.90;;;;;;4996730;28;20276;-78
2024/03/13 05:00:28;;;;;;;14.70;13.90;;;6.60;99.90;;;;;;4997354;28;20208;-77
2024/03/13 05:02:55;;;;;;;14.10;13.30;;;6.60;99.90;;;;;;4996950;28;20261;-78
2024/03/13 05:05:23;;;;;;;14.03;13.33;;;6.60;99.90;;;;;;5017588;28;20651;-77
2024/03/13 05:07:50;;;;;;;14.10;13.40;;;6.70;99.90;;;;;;5013275;28;20204;-77
2024/03/13 05:10:17;;;;;;;14.17;13.37;;;6.70;99.90;;;;;;5017066;28;20276;-77
2024/03/13 05:12:44;;;;;;;13.97;13.17;;;6.70;99.90;;;;;;5011054;28;20615;-78
2024/03/13 05:15:12;;;;;;;13.93;13.23;;;6.80;99.90;;;;;;4979983;28;20287;-77
2024/03/13 05:17:39;;;;;;;14.47;13.67;;;6.80;99.90;;;;;;5015328;28;20205;-77
2024/03/13 05:20:11;;;;;;;14.70;13.90;;;6.80;99.90;;;;;;4995936;28;20241;-78
2024/03/13 05:22:38;;;;;;;14.00;13.30;;;6.70;99.90;;;;;;5000807;28;20262;-77
2024/03/13 05:25:08;;;;;;;14.37;13.57;;;6.80;99.90;;;;;;5009983;28;20629;-78
2024/03/13 05:27:35;;;;;;;14.33;13.57;;;6.80;99.90;;;;;;5021159;28;20231;-77
2024/03/13 05:30:02;;;;;;;14.60;13.80;;;6.80;99.90;;;;;;4997254;28;20708;-77
2024/03/13 05:32:30;;;;;;;14.40;13.50;;;6.80;99.90;;;;;;5004373;28;20211;-77
2024/03/13 05:34:56;;;;;;;15.30;14.50;;;6.80;99.90;;;;;;5015288;28;20204;-77
2024/03/13 05:37:23;;;;;;;15.53;14.63;;;6.80;99.90;;;;;;5006766;28;20208;-78
2024/03/13 05:39:52;;;;;;;15.00;14.20;;;6.80;99.90;;;;;;5016387;28;20246;-77
2024/03/13 05:42:19;;;;;;;14.50;13.70;;;6.80;99.90;;;;;;5022774;28;20260;-77
2024/03/13 05:44:46;;;;;;;14.63;13.83;;;6.80;99.90;;;;;;5020002;28;20200;-77
2024/03/13 05:47:13;;;;;;;14.90;14.10;;;6.80;99.90;;;;;;5011333;28;20204;-77
2024/03/13 05:49:41;;;;;;;15.23;14.40;;;6.80;99.90;;;;;;5020495;28;20204;-77
2024/03/13 05:52:08;;;;;;;15.37;14.37;;;6.80;99.90;;;;;;5015396;28;20248;-77
2024/03/13 05:54:34;;;;;;;15.03;14.23;;;6.80;99.90;;;;;;5025429;28;20255;-77
2024/03/13 05:57:01;;;;;;;15.20;14.40;;;6.80;99.90;;;;;;5003279;28;20189;-77
2024/03/13 05:59:28;;;;;;;15.13;14.33;;;6.90;99.90;;;;;;4997384;28;20211;-77
2024/03/13 06:01:56;;;;;;;15.47;14.67;;;6.90;99.90;;;;;;5010534;28;20247;-77
2024/03/13 06:04:23;;;;;;;16.20;15.30;;;6.90;99.90;;;;;;5014243;28;20216;-77
2024/03/13 06:06:50;;;;;;;15.40;14.53;;;6.90;99.90;;;;;;5024624;28;20200;-77
2024/03/13 06:09:17;;;;;;;16.03;15.13;;;6.90;99.90;;;;;;5021192;28;20686;-77
2024/03/13 06:11:44;;;;;;;15.37;14.47;;;6.90;99.90;;;;;;5027830;28;20600;-77
2024/03/13 06:14:11;;;;;;;15.23;14.43;;;6.90;99.90;;;;;;5022758;28;20224;-77
2024/03/13 06:16:38;;;;;;;15.53;14.73;;;6.90;99.90;;;;;;4990794;28;20201;-77
2024/03/13 06:19:06;;;;;;;15.70;14.73;;;7.00;99.90;;;;;;5000081;28;20196;-77
2024/03/13 06:21:33;;;;;;;15.60;14.70;;;7.00;99.90;;;;;;5027185;28;20219;-78
2024/03/13 06:24:03;;;;;;;16.00;14.97;;;7.10;99.90;;;;;;4999886;28;20227;-77
2024/03/13 06:26:30;;;;;;;16.17;15.27;;;7.10;99.90;;;;;;5028758;28;20276;-77
2024/03/13 06:31:42;;;;;;;16.43;15.43;;;7.20;99.90;;;;;;5024006;28;20703;-77
2024/03/13 06:34:09;;;;;;;15.67;14.77;;;7.20;99.90;;;;;;4983676;28;20230;-78
2024/03/13 06:36:39;;;;;;;15.73;14.73;;;7.20;99.90;;;;;;5027078;28;20201;-77
2024/03/13 06:39:06;;;;;;;15.33;14.43;;;7.30;99.90;;;;;;5000039;28;20199;-77
2024/03/13 06:41:33;;;;;;;14.53;13.73;;;7.30;99.90;;;;;;5028449;28;20208;-77
2024/03/13 06:44:01;;;;;;;15.40;14.40;;;7.40;99.90;;;;;;4999612;28;20687;-78
2024/03/13 06:46:29;;;;;;;14.80;13.90;;;7.40;99.90;;;;;;5030321;28;20609;-77
2024/03/13 06:48:56;;;;;;;13.93;13.13;;;7.50;99.90;;;;;;5015689;28;20695;-76
2024/03/13 06:51:23;;;;;;;14.47;13.57;;;7.40;99.90;;;;;;5031300;28;20252;-77
2024/03/13 06:53:50;;;;;;;14.83;13.83;;;7.40;99.90;;;;;;5011022;28;20200;-77
2024/03/13 06:56:17;;;;;;;14.80;13.90;;;7.50;99.90;;;;;;5002784;28;20204;-77
2024/03/13 06:58:45;;;;;;;14.23;13.43;;;7.50;99.90;;;;;;5018480;28;20225;-77
2024/03/13 07:01:14;;;;;;;15.00;14.10;;;7.50;99.90;;;;;;5003195;28;20278;-78
2024/03/13 07:03:41;;;;;;;14.30;13.50;;;7.50;99.90;;;;;;5021087;28;20209;-77
2024/03/13 07:06:08;;;;;;;13.87;13.10;;;7.60;99.90;;;;;;5021514;28;20276;-78
2024/03/13 07:08:36;;;;;;;14.07;13.27;;;7.60;99.90;;;;;;5018308;28;20208;-77
2024/03/13 07:11:05;;;;;;;14.20;13.30;;;7.60;99.90;;;;;;5024693;28;20218;-77
2024/03/13 07:13:33;;;;;;;14.00;13.10;;;7.70;99.90;;;;;;5019594;28;20200;-78
2024/03/13 07:16:00;;;;;;;13.77;13.07;;;7.70;99.90;;;;;;5031596;28;20231;-77
2024/03/13 07:18:27;;;;;;;13.40;12.70;;;7.80;99.90;;;;;;5004409;28;20667;-77
2024/03/13 07:20:55;;;;;;;13.60;12.80;;;7.80;99.90;;;;;;5000132;28;20565;-78
2024/03/13 07:23:22;;;;;;;13.83;13.03;;;7.90;99.90;;;;;;4982344;28;20683;-77
2024/03/13 07:25:50;;;;;;;13.97;13.17;;;7.90;99.90;;;;;;5002097;28;20255;-77
2024/03/13 07:28:18;;;;;;;13.80;12.90;;;8.00;99.90;;;;;;5008585;28;20311;-78
2024/03/13 07:30:45;;;;;;;13.70;12.80;;;8.10;99.90;;;;;;5001910;28;20227;-78
2024/03/13 07:33:12;;;;;;;13.73;12.87;;;8.20;99.90;;;;;;5009129;28;20213;-79
2024/03/13 07:35:41;;;;;;;15.00;14.10;;;8.20;99.90;;;;;;5005881;28;20254;-79
2024/03/13 07:38:09;;;;;;;16.60;15.63;;;8.30;99.90;;;;;;5014442;28;20574;-79
2024/03/13 07:40:37;;;;;;;14.20;13.30;;;8.40;99.90;;;;;;5003152;28;20305;-81
2024/03/13 07:43:08;;;;;;;13.70;12.90;;;8.40;99.90;;;;;;5015674;28;20351;-77
2024/03/13 07:45:37;;;;;;;14.03;13.13;;;8.50;99.90;;;;;;5023898;28;20636;-77
2024/03/13 07:48:07;;;;;;;13.80;13.00;;;8.50;99.90;;;;;;5009520;28;20246;-78
2024/03/13 07:50:35;;;;;;;13.70;12.80;;;8.50;99.90;;;;;;5013059;28;20283;-78
2024/03/13 07:53:04;;;;;;;14.60;13.70;;;8.60;99.90;;;;;;5005371;28;20197;-78
2024/03/13 07:55:31;;;;;;;14.10;13.20;;;8.60;99.90;;;;;;5002694;28;20194;-79
2024/03/13 07:57:57;;;;;;;14.17;13.03;;;8.70;99.90;;;;;;5022301;28;20197;-78
2024/03/13 08:00:27;;;;;;;13.97;13.13;;;8.80;99.90;;;;;;5012147;28;20275;-78
2024/03/13 08:02:55;;;;;;;13.30;12.50;;;8.80;99.90;;;;;;5000175;28;20248;-78
2024/03/13 08:05:22;;;;;;;12.97;12.27;;;8.90;99.90;;;;;;4996131;28;20200;-79
2024/03/13 08:07:49;;;;;;;13.10;12.40;;;9.00;99.90;;;;;;4999752;28;20193;-79
2024/03/13 08:10:18;;;;;;;13.27;12.47;;;9.00;99.90;;;;;;5005787;28;20229;-78
2024/03/13 08:12:45;;;;;;;13.23;12.53;;;9.00;99.90;;;;;;5006729;28;20224;-78
2024/03/13 08:15:12;;;;;;;13.60;12.70;;;9.10;99.90;;;;;;4995761;28;20239;-79
2024/03/13 08:17:39;;;;;;;13.10;12.40;;;9.20;99.90;;;;;;5010878;28;20192;-79
2024/03/13 08:20:07;;;;;;;13.40;12.70;;;9.20;99.90;;;;;;5013447;28;20602;-78
2024/03/13 08:22:34;;;;;;;12.80;12.10;;;9.30;99.90;;;;;;5020225;28;20570;-78
2024/03/13 08:25:00;;;;;;;12.90;12.20;;;9.40;99.90;;;;;;5002569;28;20217;-79
2024/03/13 08:27:27;;;;;;;6.53;6.13;;;9.40;99.90;;;;;;5000851;28;20202;-78
2024/03/13 08:29:55;;;;;;;6.70;6.30;;;9.40;99.90;;;;;;5003788;28;20264;-79
2024/03/13 08:32:23;;;;;;;11.03;10.43;;;9.50;99.90;;;;;;5010873;28;20228;-79
2024/03/13 08:34:50;;;;;;;10.67;10.07;;;9.50;99.90;;;;;;5008523;28;20252;-78
2024/03/13 08:37:17;;;;;;;7.50;7.10;;;9.50;99.90;;;;;;5000096;28;20202;-78
2024/03/13 08:39:44;;;;;;;7.27;6.87;;;9.60;99.90;;;;;;5011557;28;20193;-78
2024/03/13 08:42:11;;;;;;;3.50;3.20;;;9.60;99.90;;;;;;5017956;28;20196;-79
2024/03/13 08:44:38;;;;;;;7.00;6.43;;;9.60;99.90;;;;;;5009199;28;20216;-78
2024/03/13 08:47:06;;;;;;;3.00;2.80;;;9.60;99.90;;;;;;5003164;28;20255;-78
2024/03/13 08:49:33;;;;;;;9.07;8.57;;;9.60;99.90;;;;;;4996587;28;20206;-78
2024/03/13 08:52:00;;;;;;;10.13;9.63;;;9.70;99.90;;;;;;4989163;28;20252;-78
2024/03/13 08:54:27;;;;;;;9.30;8.80;;;9.80;99.90;;;;;;5018499;28;20210;-78
2024/03/13 08:56:54;;;;;;;9.57;9.07;;;9.90;99.90;;;;;;5013561;28;20194;-78
2024/03/13 08:59:22;;;;;;;11.03;10.43;;;10.00;99.90;;;;;;5017517;28;20210;-78
2024/03/13 09:01:49;;;;;;;12.50;11.80;;;10.00;99.90;;;;;;4981359;28;20213;-78
2024/03/13 09:04:17;;;;;;;13.20;12.40;;;10.10;99.90;;;;;;4994742;28;20668;-78
2024/03/13 09:06:44;;;;;;;12.90;12.20;;;10.10;99.90;;;;;;5025097;28;20681;-78
2024/03/13 09:09:12;;;;;;;12.70;12.00;;;10.10;99.90;;;;;;4995021;28;20696;-78
2024/03/13 09:11:38;;;;;;;12.07;11.47;;;10.00;99.90;;;;;;5009996;28;20221;-78
2024/03/13 09:14:07;;;;;;;12.60;11.80;;;10.10;99.90;;;;;;4999297;28;20289;-78
2024/03/13 09:16:35;;;;;;;12.30;11.60;;;10.10;99.90;;;;;;5018014;28;20267;-78
2024/03/13 09:19:02;;;;;;;12.70;12.00;;;10.10;99.90;;;;;;5021235;28;20200;-78
2024/03/13 09:21:29;;;;;;;12.13;11.53;;;10.20;99.90;;;;;;5002494;28;20215;-78
2024/03/13 09:23:57;;;;;;;12.50;11.80;;;10.10;99.90;;;;;;4995030;28;20203;-78
2024/03/13 09:26:25;;;;;;;12.50;11.80;;;10.20;99.90;;;;;;4986793;28;20208;-78
2024/03/13 09:28:52;;;;;;;12.53;11.87;;;10.30;99.90;;;;;;4996373;28;20202;-78
2024/03/13 09:31:19;;;;;;;12.23;11.57;;;10.30;99.90;;;;;;5002043;28;20755;-78
2024/03/13 09:33:48;;;;;;;12.20;11.50;;;10.50;99.90;;;;;;5014160;28;20249;-78
2024/03/13 09:36:15;;;;;;;12.60;11.90;;;10.50;99.90;;;;;;5006254;28;20562;-78
2024/03/13 09:38:42;;;;;;;12.37;11.77;;;10.60;99.90;;;;;;5015956;28;20240;-79
2024/03/13 09:41:09;;;;;;;12.10;11.40;;;10.60;99.90;;;;;;5011228;28;20223;-78
2024/03/13 09:43:37;;;;;;;11.80;11.20;;;10.70;99.90;;;;;;4982299;28;20250;-78
2024/03/13 09:46:04;;;;;;;11.43;10.73;;;10.70;99.90;;;;;;5007630;28;20633;-78
2024/03/13 09:48:31;;;;;;;9.90;9.40;;;10.80;99.90;;;;;;4982080;28;20207;-79
2024/03/13 09:50:58;;;;;;;9.20;8.60;;;10.80;99.90;;;;;;5048890;23;20222;-80
2024/03/13 09:53:25;;;;;;;9.80;9.30;;;10.90;99.90;;;;;;5039851;28;20198;-82
2024/03/13 09:55:52;;;;;;;8.40;7.90;;;11.00;99.90;;;;;;5041476;28;20203;-81
2024/03/13 09:58:19;;;;;;;10.30;9.70;;;11.10;99.90;;;;;;5024812;28;20286;-81
2024/03/13 10:00:46;;;;;;;11.60;11.00;;;11.20;99.90;;;;;;5018789;28;20227;-79
2024/03/13 10:03:21;;;;;;;5.97;5.63;;;11.20;99.90;;;;;;5025765;28;20222;-80
2024/03/13 10:05:49;;;;;;;5.67;5.37;;;11.30;99.90;;;;;;4996472;28;20203;-80
2024/03/13 10:08:16;;;;;;;6.53;6.13;;;11.30;99.90;;;;;;5018711;28;20200;-79
2024/03/13 10:10:43;;;;;;;10.80;10.20;;;11.30;99.90;;;;;;4996815;28;20752;-81
2024/03/13 10:13:10;;;;;;;10.67;10.07;;;11.40;99.90;;;;;;5019595;28;20220;-80
2024/03/13 10:15:37;;;;;;;3.23;3.03;;;11.40;99.90;;;;;;5021169;28;20203;-79
2024/03/13 10:18:05;;;;;;;2.77;2.67;;;11.50;99.90;;;;;;5002725;28;20201;-79
2024/03/13 10:20:32;;;;;;;10.00;9.50;;;11.60;99.90;;;;;;5010452;28;20220;-79
2024/03/13 10:22:59;;;;;;;3.33;3.13;;;11.70;99.90;;;;;;5006376;28;20200;-80
2024/03/13 10:25:26;;;;;;;10.70;10.00;;;11.80;99.90;;;;;;4996310;28;20559;-79
2024/03/13 10:27:53;;;;;;;2.67;2.57;;;11.80;99.90;;;;;;5010096;28;20199;-79
2024/03/13 10:30:21;;;;;;;3.00;2.67;;;11.90;99.90;;;;;;4994896;28;20588;-80
2024/03/13 10:32:48;;;;;;;4.47;4.27;;;12.00;99.90;;;;;;4999628;28;20212;-79
2024/03/13 10:35:16;;;;;;;5.23;4.93;;;12.00;99.90;;;;;;5008651;28;20192;-80
2024/03/13 10:37:43;;;;;;;6.77;6.37;;;12.00;99.90;;;;;;4986540;28;20196;-78
2024/03/13 10:40:14;;;;;;;4.83;4.53;;;12.10;99.90;;;;;;5000607;28;20200;-78
2024/03/13 10:42:42;;;;;;;7.40;7.00;;;12.10;99.90;;;;;;5034183;28;20192;-79
2024/03/13 10:45:11;;;;;;;5.77;5.40;;;12.10;99.90;;;;;;4984692;28;20584;-78
2024/03/13 10:47:38;;;;;;;2.60;2.50;;;12.10;99.90;;;;;;5019940;28;20200;-78
2024/03/13 10:50:08;;;;;;;3.03;2.80;;;12.30;99.90;;;;;;4993987;28;20203;-79
2024/03/13 10:52:37;;;;;;;5.83;5.43;;;12.50;99.90;;;;;;5012157;28;20658;-78
2024/03/13 10:55:05;;;;;;;4.87;4.57;;;12.70;99.90;;;;;;4997095;28;20583;-79
2024/03/13 10:57:31;;;;;;;6.20;5.90;;;12.80;99.90;;;;;;5010877;28;20189;-79
2024/03/13 10:59:58;;;;;;;7.30;6.90;;;12.80;99.90;;;;;;4996199;28;20236;-78
2024/03/13 11:02:25;;;;;;;6.73;6.30;;;12.80;99.90;;;;;;4993257;28;20206;-78
2024/03/13 11:04:52;;;;;;;8.20;7.50;;;12.90;99.90;;;;;;5001046;28;20200;-79
2024/03/13 11:07:20;;;;;;;8.83;8.33;;;12.90;99.90;;;;;;5011227;28;20214;-79
2024/03/13 11:09:47;;;;;;;8.30;7.80;;;13.00;99.90;;;;;;5005116;28;20254;-79
2024/03/13 11:12:19;;;;;;;8.60;8.10;;;13.10;99.90;;;;;;5012571;28;20228;-80
2024/03/13 11:14:50;;;;;;;8.77;7.83;;;13.20;99.90;;;;;;5003046;28;20278;-80
2024/03/13 11:17:18;;;;;;;11.70;11.00;;;13.30;99.90;;;;;;5012168;28;20206;-80
2024/03/13 11:19:45;;;;;;;12.70;12.00;;;13.20;99.90;;;;;;5013262;28;20230;-82
2024/03/13 11:22:13;;;;;;;12.40;11.43;;;13.30;99.90;;;;;;5017009;28;20691;-81
2024/03/13 11:24:40;;;;;;;12.20;11.50;;;13.30;99.90;;;;;;5008345;28;20277;-81
2024/03/13 11:27:10;;;;;;;12.70;12.00;;;13.40;99.90;;;;;;4988857;28;20228;-81
2024/03/13 11:29:43;;;;;;;12.60;11.90;;;13.40;99.90;;;;;;5002509;28;20211;-81
2024/03/13 11:32:10;;;;;;;12.57;11.87;;;13.50;99.90;;;;;;5017523;28;20700;-80
2024/03/13 11:34:37;;;;;;;12.23;11.53;;;13.50;99.90;;;;;;5003399;28;20194;-80
2024/03/13 11:37:07;;;;;;;11.90;11.20;;;13.70;99.90;;;;;;5011171;28;20201;-81
2024/03/13 11:39:34;;;;;;;9.67;9.17;;;13.80;99.90;;;;;;5013995;28;20206;-79
2024/03/13 11:42:08;;;;;;;10.10;9.50;;;13.90;99.90;;;;;;5002474;28;20214;-80
2024/03/13 11:44:37;;;;;;;10.80;10.20;;;13.90;99.90;;;;;;5002312;28;20207;-79
2024/03/13 11:47:05;;;;;;;11.00;10.40;;;13.80;99.90;;;;;;5015047;28;20188;-79
2024/03/13 11:49:33;;;;;;;10.67;9.97;;;13.70;99.90;;;;;;5003730;28;20201;-80
2024/03/13 11:52:12;;;;;;;10.47;9.87;;;13.70;99.90;;;;;;5011387;28;20258;-79
2024/03/13 11:54:43;;;;;;;10.80;10.20;;;13.70;99.90;;;;;;5022642;28;20695;-81
2024/03/13 11:57:12;;;;;;;10.27;9.77;;;13.70;99.90;;;;;;4990126;28;20680;-80
2024/03/13 11:59:42;;;;;;;10.80;10.20;;;13.70;99.90;;;;;;5010130;28;20314;-76
2024/03/13 12:02:38;;;;;;;7.60;7.20;;;13.60;99.90;;;;;;5001219;28;20220;-82
2024/03/13 12:05:06;;;;;;;7.97;7.57;;;13.70;99.90;;;;;;4989574;28;20196;-81
2024/03/13 12:07:35;;;;;;;9.70;9.20;;;13.70;99.90;;;;;;5024967;28;20258;-79
2024/03/13 12:10:02;;;;;;;10.33;9.80;;;13.70;99.90;;;;;;5007975;28;20206;-82
2024/03/13 12:12:29;;;;;;;8.70;8.20;;;13.80;99.90;;;;;;5008428;28;20282;-82
2024/03/13 12:14:56;;;;;;;8.60;8.10;;;13.90;99.90;;;;;;4990955;28;20196;-81
2024/03/13 12:17:24;;;;;;;9.00;8.50;;;13.90;99.90;;;;;;5026728;28;20208;-77
2024/03/13 12:19:51;;;;;;;7.03;6.63;;;14.10;99.90;;;;;;5007613;28;20207;-78
2024/03/13 12:22:19;;;;;;;7.73;7.33;;;14.10;99.90;;;;;;5025422;28;20211;-82
2024/03/13 12:24:46;;;;;;;8.10;7.50;;;14.10;99.90;;;;;;4995132;28;20199;-80
2024/03/13 12:27:13;;;;;;;8.17;7.73;;;14.10;99.90;;;;;;5004459;28;20298;-81
2024/03/13 12:29:40;;;;;;;7.60;7.20;;;14.00;99.90;;;;;;5004278;28;20203;-80
2024/03/13 12:32:08;;;;;;;7.93;7.53;;;13.90;99.90;;;;;;5003329;28;20214;-80
2024/03/13 12:34:36;;;;;;;8.03;7.63;;;13.90;99.90;;;;;;4998263;28;20197;-80
2024/03/13 12:37:05;;;;;;;7.70;7.30;;;13.90;99.90;;;;;;5005391;28;20206;-79
2024/03/13 12:39:35;;;;;;;7.50;7.10;;;14.00;99.90;;;;;;5006012;28;20282;-81
2024/03/13 12:42:04;;;;;;;8.30;7.80;;;14.10;99.90;;;;;;4986034;28;20225;-81
2024/03/13 12:44:32;;;;;;;8.33;7.90;;;14.30;99.90;;;;;;4990742;28;20197;-80
2024/03/13 12:46:59;;;;;;;8.53;8.03;;;14.40;99.90;;;;;;5010068;28;20203;-79
2024/03/13 12:49:26;;;;;;;9.00;8.50;;;14.50;99.90;;;;;;4993136;28;20250;-80
2024/03/13 12:51:54;;;;;;;8.63;8.13;;;14.60;99.90;;;;;;5006605;28;20234;-80
2024/03/13 12:54:24;;;;;;;7.47;7.07;;;14.70;99.90;;;;;;4995216;28;20230;-81
2024/03/13 12:56:51;;;;;;;8.00;7.60;;;14.90;99.90;;;;;;5025348;28;20201;-80
2024/03/13 12:59:21;;;;;;;7.90;7.50;;;15.00;99.90;;;;;;4980386;28;20623;-80